Time;durP1;ratioP1;P1;durP2;ratioP2;P2;SDS_P1;SDS_P2;PMS_P1;PMS_P2;Temp;Humidity;BMP_temperature;BMP_pressure;BME280_temperature;BME280_humidity;BME280_pressure;Samples;Min_cycle;Max_cycle;Signal;HPM_P1;HPM_P2
2022/06/01 00:00:33;;;;;;;;;;;;;;;;;;5077542;28;1272;-78
2022/06/01 00:02:58;;;;;;;;;;;;;;;;;;5065764;28;1163;-78
2022/06/01 00:05:24;;;;;;;;;;;;;;;;;;5081234;28;1172;-78
2022/06/01 00:07:49;;;;;;;;;;;;;;;;;;5078776;28;1898;-79
2022/06/01 00:10:15;;;;;;;;;;;;;;;;;;5078082;28;1239;-79
2022/06/01 00:12:40;;;;;;;;;;;;;;;;;;5083383;28;770;-79
2022/06/01 00:15:07;;;;;;;;;;;;;;;;;;5078928;28;1195;-79
2022/06/01 00:17:32;;;;;;;;;;;;;;;;;;5061912;28;1180;-79
2022/06/01 00:19:57;;;;;;;;;;;;;;;;;;5065372;28;1349;-78
2022/06/01 00:22:23;;;;;;;;;;;;;;;;;;5045597;28;1186;-79
2022/06/01 00:24:48;;;;;;;;;;;;;;;;;;5062786;28;1242;-79
2022/06/01 00:27:14;;;;;;;;;;;;;;;;;;5097487;28;1889;-79
2022/06/01 00:29:40;;;;;;;;;;;;;;;;;;5086545;27;1215;-79
2022/06/01 00:32:06;;;;;;;;;;;;;;;;;;5106751;27;1230;-79
2022/06/01 00:34:34;;;;;;;;;;;;;;;;;;5124294;27;1092;-78
2022/06/01 00:37:04;;;;;;;;;;;;;;;;;;5088043;27;1213;-78
2022/06/01 00:39:35;;;;;;;;;;;;;;;;;;5090261;27;1355;-78
2022/06/01 00:42:13;;;;;;;;;;;;;;;;;;5067305;28;1207;-78
2022/06/01 00:44:38;;;;;;;;;;;;;;;;;;5083573;28;1208;-78
2022/06/01 00:47:04;;;;;;;;;;;;;;;;;;5084058;28;1942;-77
2022/06/01 00:49:29;;;;;;;;;;;;;;;;;;5085418;28;1159;-77
2022/06/01 00:52:04;;;;;;;;;;;;;;;;;;5099382;28;1274;-78
2022/06/01 00:54:30;;;;;;;;;;;;;;;;;;5106486;27;903;-78
2022/06/01 00:56:58;;;;;;;;;;;;;;;;;;5100406;28;1155;-78
2022/06/01 00:59:25;;;;;;;;;;;;;;;;;;5093025;28;1210;-77
2022/06/01 01:01:55;;;;;;;;;;;;;;;;;;5082459;28;1159;-77
2022/06/01 01:04:21;;;;;;;;;;;;;;;;;;5085271;28;1353;-78
2022/06/01 01:06:46;;;;;;;;;;;;;;;;;;5082436;28;1937;-78
2022/06/01 01:09:12;;;;;;;;;;;;;;;;;;5084071;28;857;-79
2022/06/01 01:11:49;;;;;;;;;;;;;;;;;;5080366;28;1199;-79
2022/06/01 01:14:25;;;;;;;;;;;;;;;;;;5085309;28;893;-79
2022/06/01 01:16:51;;;;;;;;;;;;;;;;;;5084633;28;849;-79
2022/06/01 01:19:32;;;;;;;;;;;;;;;;;;5084801;28;802;-78
2022/06/01 01:22:04;;;;;;;;;;;;;;;;;;5088210;28;1262;-78
2022/06/01 01:24:34;;;;;;;;;;;;;;;;;;5105421;28;1234;-78
2022/06/01 01:26:59;;;;;;;;;;;;;;;;;;5100919;28;2037;-77
2022/06/01 01:29:35;;;;;;;;;;;;;;;;;;5106045;28;1164;-77
2022/06/01 01:32:01;;;;;;;;;;;;;;;;;;5086780;28;1166;-78
2022/06/01 01:34:28;;;;;;;;;;;;;;;;;;5089709;28;1190;-77
2022/06/01 01:37:01;;;;;;;;;;;;;;;;;;5106242;28;892;-77
2022/06/01 01:39:28;;;;;;;;;;;;;;;;;;5106556;28;1261;-77
2022/06/01 01:41:54;;;;;;;;;;;;;;;;;;5102986;28;1067;-77
2022/06/01 01:44:25;;;;;;;;;;;;;;;;;;5107521;28;1059;-77
2022/06/01 01:46:51;;;;;;;;;;;;;;;;;;5101328;28;1942;-78
2022/06/01 01:49:18;;;;;;;;;;;;;;;;;;5088337;28;1266;-78
2022/06/01 01:51:44;;;;;;;;;;;;;;;;;;5103283;28;727;-78
2022/06/01 01:54:21;;;;;;;;;;;;;;;;;;5085343;28;1285;-78
2022/06/01 01:57:07;;;;;;;;;;;;;;;;;;5100385;28;1198;-78
2022/06/01 01:59:48;;;;;;;;;;;;;;;;;;5107086;28;1034;-78
2022/06/01 02:02:18;;;;;;;;;;;;;;;;;;5105874;28;1156;-77
2022/06/01 02:07:49;;;;;;;;;;;;;;;;;;5081658;28;1933;-75
2022/06/01 02:13:06;;;;;;;;;;;;;;;;;;5079391;28;1329;-78
2022/06/01 02:15:34;;;;;;;;;;;;;;;;;;5097188;28;1160;-77
2022/06/01 02:18:02;;;;;;;;;;;;;;;;;;5080403;28;1186;-78
2022/06/01 02:20:35;;;;;;;;;;;;;;;;;;5085464;28;861;-78
2022/06/01 02:23:01;;;;;;;;;;;;;;;;;;5079610;28;1277;-78
2022/06/01 02:25:27;;;;;;;;;;;;;;;;;;5083280;28;949;-78
2022/06/01 02:27:54;;;;;;;;;;;;;;;;;;5079989;28;1976;-78
2022/06/01 02:30:33;;;;;;;;;;;;;;;;;;5082965;28;1233;-78
2022/06/01 02:32:59;;;;;;;;;;;;;;;;;;5081630;28;868;-78
2022/06/01 02:35:26;;;;;;;;;;;;;;;;;;5082672;28;1159;-78
2022/06/01 02:37:54;;;;;;;;;;;;;;;;;;5080601;28;826;-78
2022/06/01 02:40:21;;;;;;;;;;;;;;;;;;5080702;28;1159;-77
2022/06/01 02:42:51;;;;;;;;;;;;;;;;;;5101249;28;1168;-79
2022/06/01 02:45:17;;;;;;;;;;;;;;;;;;5100138;28;1348;-78
2022/06/01 02:47:44;;;;;;;;;;;;;;;;;;5118525;27;1913;-78
2022/06/01 02:50:12;;;;;;;;;;;;;;;;;;5103524;27;1164;-78
2022/06/01 02:52:37;;;;;;;;;;;;;;;;;;5105815;27;1296;-78
2022/06/01 02:55:05;;;;;;;;;;;;;;;;;;5100847;27;1147;-78
2022/06/01 02:57:31;;;;;;;;;;;;;;;;;;5088385;28;1219;-78
2022/06/01 03:00:07;;;;;;;;;;;;;;;;;;;;;
2022/06/01 03:02:33;;;;;;;;;;;;;;;;;;5089604;28;658;-79
2022/06/01 03:04:59;;;;;;;;;;;;;;;;;;5084369;28;1345;-79
2022/06/01 03:07:24;;;;;;;;;;;;;;;;;;5067911;28;1898;-78
2022/06/01 03:09:53;;;;;;;;;;;;;;;;;;5086291;28;1259;-78
2022/06/01 03:12:18;;;;;;;;;;;;;;;;;;5082423;28;1128;-79
2022/06/01 03:14:44;;;;;;;;;;;;;;;;;;5085248;28;1278;-79
2022/06/01 03:17:09;;;;;;;;;;;;;;;;;;5079961;28;1215;-79
2022/06/01 03:19:34;;;;;;;;;;;;;;;;;;5105179;28;1223;-79
2022/06/01 03:22:06;;;;;;;;;;;;;;;;;;5059661;28;1101;-79
2022/06/01 03:24:32;;;;;;;;;;;;;;;;;;5082558;28;1183;-78
2022/06/01 03:26:57;;;;;;;;;;;;;;;;;;5083667;28;1909;-78
2022/06/01 03:29:24;;;;;;;;;;;;;;;;;;5106728;28;1251;-78
2022/06/01 03:31:53;;;;;;;;;;;;;;;;;;5102615;28;1317;-78
2022/06/01 03:34:18;;;;;;;;;;;;;;;;;;5086619;28;1295;-78
2022/06/01 03:36:44;;;;;;;;;;;;;;;;;;5105368;28;1555;-79
2022/06/01 03:39:09;;;;;;;;;;;;;;;;;;5101422;28;1182;-78
2022/06/01 03:41:34;;;;;;;;;;;;;;;;;;5112673;28;1179;-78
2022/06/01 03:46:43;;;;;;;;;;;;;;;;;;5086780;28;1270;-79
2022/06/01 03:49:09;;;;;;;;;;;;;;;;;;5085452;28;1963;-79
2022/06/01 03:51:36;;;;;;;;;;;;;;;;;;5105175;28;755;-79
2022/06/01 03:54:02;;;;;;;;;;;;;;;;;;5082178;28;1314;-79
2022/06/01 03:56:27;;;;;;;;;;;;;;;;;;5084007;28;1268;-79
2022/06/01 03:58:56;;;;;;;;;;;;;;;;;;5097764;28;1152;-79
2022/06/01 04:01:21;;;;;;;;;;;;;;;;;;5104757;28;1149;-79
2022/06/01 04:03:46;;;;;;;;;;;;;;;;;;5108889;27;1036;-79
2022/06/01 04:06:12;;;;;;;;;;;;;;;;;;5107490;27;861;-79
2022/06/01 04:08:38;;;;;;;;;;;;;;;;;;5109947;27;1894;-80
2022/06/01 04:11:03;;;;;;;;;;;;;;;;;;5106795;27;1261;-79
2022/06/01 04:13:29;;;;;;;;;;;;;;;;;;5109494;27;1221;-79
2022/06/01 04:15:57;;;;;;;;;;;;;;;;;;5124884;27;1175;-80
2022/06/01 04:18:22;;;;;;;;;;;;;;;;;;5109186;27;1221;-79
2022/06/01 04:20:50;;;;;;;;;;;;;;;;;;5109434;27;1350;-79
2022/06/01 04:23:16;;;;;;;;;;;;;;;;;;5127081;27;1324;-79
2022/06/01 04:25:41;;;;;;;;;;;;;;;;;;5092728;28;1313;-79
2022/06/01 04:28:07;;;;;;;;;;;;;;;;;;5088596;28;1898;-80
2022/06/01 04:30:40;;;;;;;;;;;;;;;;;;5090898;28;1151;-80
2022/06/01 04:33:05;;;;;;;;;;;;;;;;;;5073016;27;1263;-79
2022/06/01 04:35:31;;;;;;;;;;;;;;;;;;5092462;27;1251;-79
2022/06/01 04:38:15;;;;;;;;;;;;;;;;;;5107891;27;1325;-79
2022/06/01 04:40:45;;;;;;;;;;;;;;;;;;5081599;28;1191;-80
2022/06/01 04:43:12;;;;;;;;;;;;;;;;;;5085092;28;1314;-79
2022/06/01 04:45:37;;;;;;;;;;;;;;;;;;5107083;28;1227;-80
2022/06/01 04:48:02;;;;;;;;;;;;;;;;;;5086081;27;1914;-79
2022/06/01 04:50:28;;;;;;;;;;;;;;;;;;5111464;27;1155;-80
2022/06/01 04:52:53;;;;;;;;;;;;;;;;;;5092250;27;1167;-80
2022/06/01 04:55:18;;;;;;;;;;;;;;;;;;5126710;27;782;-80
2022/06/01 04:57:44;;;;;;;;;;;;;;;;;;5126738;27;853;-79
2022/06/01 05:00:10;;;;;;;;;;;;;;;;;;5108061;27;1312;-79
2022/06/01 05:02:36;;;;;;;;;;;;;;;;;;5107076;27;1134;-79
2022/06/01 05:05:02;;;;;;;;;;;;;;;;;;5109912;27;833;-79
2022/06/01 05:07:27;;;;;;;;;;;;;;;;;;5084625;27;1947;-80
2022/06/01 05:09:52;;;;;;;;;;;;;;;;;;5087152;28;865;-79
2022/06/01 05:12:18;;;;;;;;;;;;;;;;;;5083627;28;853;-79
2022/06/01 05:14:43;;;;;;;;;;;;;;;;;;5068689;28;791;-79
2022/06/01 05:17:08;;;;;;;;;;;;;;;;;;5052399;28;1322;-80
2022/06/01 05:19:34;;;;;;;;;;;;;;;;;;5071500;28;787;-79
2022/06/01 05:22:06;;;;;;;;;;;;;;;;;;5068416;28;1163;-79
2022/06/01 05:24:31;;;;;;;;;;;;;;;;;;5086971;28;988;-79
2022/06/01 05:26:56;;;;;;;;;;;;;;;;;;5067901;28;1951;-79
2022/06/01 05:29:22;;;;;;;;;;;;;;;;;;5050774;28;1176;-79
2022/06/01 05:31:48;;;;;;;;;;;;;;;;;;5066929;28;877;-80
2022/06/01 05:34:13;;;;;;;;;;;;;;;;;;5084251;28;830;-79
2022/06/01 05:36:39;;;;;;;;;;;;;;;;;;5051500;28;1137;-79
2022/06/01 05:39:07;;;;;;;;;;;;;;;;;;5082153;28;1185;-79
2022/06/01 05:41:33;;;;;;;;;;;;;;;;;;5087574;28;1283;-79
2022/06/01 05:43:59;;;;;;;;;;;;;;;;;;5089068;28;1105;-80
2022/06/01 05:46:25;;;;;;;;;;;;;;;;;;5066283;28;1317;-79
2022/06/01 05:48:51;;;;;;;;;;;;;;;;;;5086827;28;2007;-79
2022/06/01 05:51:16;;;;;;;;;;;;;;;;;;5088357;27;1153;-78
2022/06/01 05:53:41;;;;;;;;;;;;;;;;;;5090066;27;1261;-79
2022/06/01 05:56:10;;;;;;;;;;;;;;;;;;5090604;27;1351;-78
2022/06/01 05:58:35;;;;;;;;;;;;;;;;;;5091245;27;1223;-79
2022/06/01 06:01:06;;;;;;;;;;;;;;;;;;5108049;27;1269;-80
2022/06/01 06:03:32;;;;;;;;;;;;;;;;;;5103057;27;1292;-80
2022/06/01 06:06:15;;;;;;;;;;;;;;;;;;5091750;27;1303;-79
2022/06/01 06:08:42;;;;;;;;;;;;;;;;;;5108230;27;1917;-78
2022/06/01 06:11:11;;;;;;;;;;;;;;;;;;5125533;27;1306;-78
2022/06/01 06:13:36;;;;;;;;;;;;;;;;;;5090375;28;1330;-79
2022/06/01 06:16:02;;;;;;;;;;;;;;;;;;5090652;28;845;-79
2022/06/01 06:18:28;;;;;;;;;;;;;;;;;;5103105;28;960;-79
2022/06/01 06:20:53;;;;;;;;;;;;;;;;;;5071878;28;1210;-79
2022/06/01 06:23:18;;;;;;;;;;;;;;;;;;5082995;28;1273;-79
2022/06/01 06:25:44;;;;;;;;;;;;;;;;;;5087339;28;1285;-79
2022/06/01 06:28:09;;;;;;;;;;;;;;;;;;5086917;28;1961;-80
2022/06/01 06:30:36;;;;;;;;;;;;;;;;;;5086809;28;1325;-79
2022/06/01 06:33:01;;;;;;;;;;;;;;;;;;5084055;28;1231;-79
2022/06/01 06:35:26;;;;;;;;;;;;;;;;;;5062552;28;1223;-80
2022/06/01 06:37:51;;;;;;;;;;;;;;;;;;5064573;28;1167;-81
2022/06/01 06:40:17;;;;;;;;;;;;;;;;;;5058292;28;1373;-80
2022/06/01 06:42:42;;;;;;;;;;;;;;;;;;5087995;28;1295;-80
2022/06/01 06:45:08;;;;;;;;;;;;;;;;;;5072455;27;1279;-79
2022/06/01 06:47:34;;;;;;;;;;;;;;;;;;5092092;28;1983;-80
2022/06/01 06:50:04;;;;;;;;;;;;;;;;;;5084035;28;1302;-80
2022/06/01 06:52:29;;;;;;;;;;;;;;;;;;5080391;28;1164;-81
2022/06/01 06:54:54;;;;;;;;;;;;;;;;;;5086033;28;1196;-80
2022/06/01 06:57:20;;;;;;;;;;;;;;;;;;5063163;28;1439;-80
2022/06/01 06:59:48;;;;;;;;;;;;;;;;;;5070938;27;1330;-80
2022/06/01 07:02:13;;;;;;;;;;;;;;;;;;5101222;27;1144;-81
2022/06/01 07:04:38;;;;;;;;;;;;;;;;;;5090704;27;1148;-81
2022/06/01 07:07:04;;;;;;;;;;;;;;;;;;5082008;27;1936;-81
2022/06/01 07:09:29;;;;;;;;;;;;;;;;;;5105896;27;1105;-81
2022/06/01 07:11:55;;;;;;;;;;;;;;;;;;5119792;27;1199;-79
2022/06/01 07:14:21;;;;;;;;;;;;;;;;;;5095679;27;1138;-80
2022/06/01 07:16:47;;;;;;;;;;;;;;;;;;5104717;28;1305;-80
2022/06/01 07:19:14;;;;;;;;;;;;;;;;;;5102011;27;1392;-80
2022/06/01 07:21:41;;;;;;;;;;;;;;;;;;5084444;28;1156;-79
2022/06/01 07:24:07;;;;;;;;;;;;;;;;;;5087269;28;1109;-80
2022/06/01 07:26:34;;;;;;;;;;;;;;;;;;5119761;27;1112;-79
2022/06/01 07:28:59;;;;;;;;;;;;;;;;;;5122846;27;1921;-80
2022/06/01 07:31:25;;;;;;;;;;;;;;;;;;5121912;27;1088;-80
2022/06/01 07:33:53;;;;;;;;;;;;;;;;;;5102983;28;1321;-79
2022/06/01 07:36:19;;;;;;;;;;;;;;;;;;5104563;28;1144;-80
2022/06/01 07:44:25;;;;;;;;;;;;;;;;;;5118277;27;984;-78
2022/06/01 07:46:51;;;;;;;;;;;;;;;;;;5092853;27;1242;-80
2022/06/01 07:49:18;;;;;;;;;;;;;;;;;;5104348;28;1924;-79
2022/06/01 07:51:43;;;;;;;;;;;;;;;;;;5087434;28;1356;-80
2022/06/01 07:54:09;;;;;;;;;;;;;;;;;;5066241;28;1155;-80
2022/06/01 07:56:34;;;;;;;;;;;;;;;;;;5081553;28;1182;-80
2022/06/01 07:58:59;;;;;;;;;;;;;;;;;;5104562;28;1169;-80
2022/06/01 08:01:25;;;;;;;;;;;;;;;;;;5104564;28;1152;-80
2022/06/01 08:03:56;;;;;;;;;;;;;;;;;;5087203;28;1309;-80
2022/06/01 08:06:22;;;;;;;;;;;;;;;;;;5102037;28;1069;-83
2022/06/01 08:08:47;;;;;;;;;;;;;;;;;;5083585;28;1990;-78
2022/06/01 08:11:12;;;;;;;;;;;;;;;;;;5063810;28;1181;-78
2022/06/01 08:13:38;;;;;;;;;;;;;;;;;;5082288;28;1223;-79
2022/06/01 08:16:03;;;;;;;;;;;;;;;;;;5085180;28;1169;-78
2022/06/01 08:18:28;;;;;;;;;;;;;;;;;;5061994;28;1382;-76
2022/06/01 08:20:54;;;;;;;;;;;;;;;;;;5086050;28;1157;-76
2022/06/01 08:23:24;;;;;;;;;;;;;;;;;;5063470;28;1242;-76
2022/06/01 08:25:50;;;;;;;;;;;;;;;;;;5084795;28;1189;-76
2022/06/01 08:28:15;;;;;;;;;;;;;;;;;;5090847;28;1902;-75
2022/06/01 08:30:41;;;;;;;;;;;;;;;;;;5087284;28;1398;-76
2022/06/01 08:33:07;;;;;;;;;;;;;;;;;;5103962;28;1274;-75
2022/06/01 08:35:34;;;;;;;;;;;;;;;;;;5104460;28;944;-76
2022/06/01 08:37:59;;;;;;;;;;;;;;;;;;5104844;28;1099;-75
2022/06/01 08:40:30;;;;;;;;;;;;;;;;;;5103417;28;1297;-75
2022/06/01 08:43:02;;;;;;;;;;;;;;;;;;5107208;28;1154;-76
2022/06/01 08:45:28;;;;;;;;;;;;;;;;;;5105418;28;873;-76
2022/06/01 08:47:53;;;;;;;;;;;;;;;;;;5112634;27;1949;-76
2022/06/01 08:50:21;;;;;;;;;;;;;;;;;;5093348;27;1139;-76
2022/06/01 08:52:47;;;;;;;;;;;;;;;;;;5104230;27;1047;-76
2022/06/01 08:55:13;;;;;;;;;;;;;;;;;;5089008;27;1071;-76
2022/06/01 08:57:55;;;;;;;;;;;;;;;;;;5106176;27;1205;-76
2022/06/01 09:00:20;;;;;;;;;;;;;;;;;;5126838;27;1183;-76
2022/06/01 09:02:58;;;;;;;;;;;;;;;;;;5106220;27;1349;-76
2022/06/01 09:05:29;;;;;;;;;;;;;;;;;;5126627;27;1266;-76
2022/06/01 09:08:01;;;;;;;;;;;;;;;;;;5107074;27;1935;-75
2022/06/01 09:10:51;;;;;;;;;;;;;;;;;;5103969;27;1152;-76
2022/06/01 09:13:23;;;;;;;;;;;;;;;;;;5109050;27;1206;-76
2022/06/01 09:15:55;;;;;;;;;;;;;;;;;;5090026;27;1241;-77
2022/06/01 09:18:21;;;;;;;;;;;;;;;;;;5105880;27;1301;-76
2022/06/01 09:23:31;;;;;;;;;;;;;;;;;;5124024;27;612;-75
2022/06/01 09:25:57;;;;;;;;;;;;;;;;;;5103786;27;1355;-75
2022/06/01 09:28:25;;;;;;;;;;;;;;;;;;5107851;27;1897;-76
2022/06/01 09:31:10;;;;;;;;;;;;;;;;;;5108137;27;1363;-76
2022/06/01 09:33:36;;;;;;;;;;;;;;;;;;5121163;27;751;-76
2022/06/01 09:36:07;;;;;;;;;;;;;;;;;;5107625;27;1115;-76
2022/06/01 09:38:36;;;;;;;;;;;;;;;;;;5122835;27;881;-76
2022/06/01 09:41:06;;;;;;;;;;;;;;;;;;5106736;27;1289;-76
2022/06/01 09:43:31;;;;;;;;;;;;;;;;;;5104606;27;1182;-76
2022/06/01 09:45:57;;;;;;;;;;;;;;;;;;5080333;28;1299;-76
2022/06/01 09:48:28;;;;;;;;;;;;;;;;;;5085808;28;1885;-76
2022/06/01 09:51:03;;;;;;;;;;;;;;;;;;5085593;28;1290;-76
2022/06/01 09:53:41;;;;;;;;;;;;;;;;;;5083350;28;1337;-76
2022/06/01 09:56:06;;;;;;;;;;;;;;;;;;5085034;28;1216;-76
2022/06/01 10:06:58;;;;;;;;;;;;;;;;;;5104734;28;1032;-76
2022/06/01 10:09:31;;;;;;;;;;;;;;;;;;5085009;28;1928;-76
2022/06/01 10:11:57;;;;;;;;;;;;;;;;;;5083042;28;1224;-76
2022/06/01 10:14:36;;;;;;;;;;;;;;;;;;5067452;28;1217;-76
2022/06/01 10:17:27;;;;;;;;;;;;;;;;;;5104164;28;1318;-76
2022/06/01 10:20:12;;;;;;;;;;;;;;;;;;5079393;28;1227;-76
2022/06/01 10:23:03;;;;;;;;;;;;;;;;;;5100195;28;1112;-76
2022/06/01 10:25:37;;;;;;;;;;;;;;;;;;5081848;28;1289;-77
2022/06/01 10:28:07;;;;;;;;;;;;;;;;;;5086312;28;1943;-76
2022/06/01 10:30:35;;;;;;;;;;;;;;;;;;5085201;28;1227;-76
2022/06/01 10:33:14;;;;;;;;;;;;;;;;;;5085158;28;1144;-76
2022/06/01 10:35:50;;;;;;;;;;;;;;;;;;5081550;28;1198;-76
2022/06/01 10:38:22;;;;;;;;;;;;;;;;;;5083323;28;1175;-76
2022/06/01 10:41:02;;;;;;;;;;;;;;;;;;5081372;28;1159;-76
2022/06/01 10:43:46;;;;;;;;;;;;;;;;;;5086556;28;1171;-76
2022/06/01 10:46:30;;;;;;;;;;;;;;;;;;5087502;27;1246;-79
2022/06/01 10:49:04;;;;;;;;;;;;;;;;;;5099667;27;1939;-80
2022/06/01 10:51:33;;;;;;;;;;;;;;;;;;5091813;28;1204;-79
2022/06/01 10:54:21;;;;;;;;;;;;;;;;;;5081137;28;1264;-77
2022/06/01 10:56:47;;;;;;;;;;;;;;;;;;5069966;28;1304;-77
2022/06/01 10:59:14;;;;;;;;;;;;;;;;;;5086579;28;1084;-76
2022/06/01 11:02:20;;;;;;;;;;;;;;;;;;5103078;28;1207;-79
2022/06/01 11:04:58;;;;;;;;;;;;;;;;;;5016748;28;1393;-79
2022/06/01 11:07:50;;;;;;;;;;;;;;;;;;5002609;28;1942;-78
2022/06/01 11:10:22;;;;;;;;;;;;;;;;;;5053312;28;1273;-77
2022/06/01 11:12:52;;;;;;;;;;;;;;;;;;5085804;27;1269;-75
2022/06/01 11:15:17;;;;;;;;;;;;;;;;;;5103683;27;1365;-77
2022/06/01 11:17:45;;;;;;;;;;;;;;;;;;5123773;27;1088;-76
2022/06/01 11:20:33;;;;;;;;;;;;;;;;;;5125385;27;1148;-76
2022/06/01 11:23:02;;;;;;;;;;;;;;;;;;5102051;27;1243;-76
2022/06/01 11:25:54;;;;;;;;;;;;;;;;;;5103781;27;1301;-76
2022/06/01 11:28:47;;;;;;;;;;;;;;;;;;5106594;27;1934;-76
2022/06/01 11:31:12;;;;;;;;;;;;;;;;;;5106552;28;1196;-76
2022/06/01 11:33:57;;;;;;;;;;;;;;;;;;5119234;27;1211;-76
2022/06/01 11:36:38;;;;;;;;;;;;;;;;;;5085984;28;1329;-76
2022/06/01 11:39:16;;;;;;;;;;;;;;;;;;5082333;28;1345;-77
2022/06/01 11:41:50;;;;;;;;;;;;;;;;;;5083767;28;1104;-76
2022/06/01 11:44:18;;;;;;;;;;;;;;;;;;5086479;28;1240;-77
2022/06/01 11:46:51;;;;;;;;;;;;;;;;;;5103144;28;810;-77
2022/06/01 11:49:26;;;;;;;;;;;;;;;;;;5102554;28;1893;-76
2022/06/01 11:51:51;;;;;;;;;;;;;;;;;;5083406;28;1318;-77
2022/06/01 11:54:33;;;;;;;;;;;;;;;;;;5082996;28;1258;-77
2022/06/01 11:56:58;;;;;;;;;;;;;;;;;;5079318;28;1309;-77
2022/06/01 11:59:34;;;;;;;;;;;;;;;;;;5084896;28;1271;-76
2022/06/01 12:02:16;;;;;;;;;;;;;;;;;;5112206;28;1097;-76
2022/06/01 12:04:58;;;;;;;;;;;;;;;;;;5105094;28;1143;-76
2022/06/01 12:07:34;;;;;;;;;;;;;;;;;;5102432;28;1937;-77
2022/06/01 12:10:06;;;;;;;;;;;;;;;;;;5120433;28;1100;-77
2022/06/01 12:12:34;;;;;;;;;;;;;;;;;;5107893;28;1181;-77
2022/06/01 12:15:02;;;;;;;;;;;;;;;;;;5104739;28;1211;-77
2022/06/01 12:17:29;;;;;;;;;;;;;;;;;;5116969;28;1211;-78
2022/06/01 12:20:14;;;;;;;;;;;;;;;;;;5102881;28;1315;-76
2022/06/01 12:28:46;;;;;;;;;;;;;;;;;;5107908;28;1898;-76
2022/06/01 12:31:13;;;;;;;;;;;;;;;;;;5087123;28;1180;-77
2022/06/01 12:33:57;;;;;;;;;;;;;;;;;;5104030;28;1168;-76
2022/06/01 12:36:23;;;;;;;;;;;;;;;;;;5105312;28;1223;-76
2022/06/01 12:38:49;;;;;;;;;;;;;;;;;;5086526;27;1307;-76
2022/06/01 12:41:19;;;;;;;;;;;;;;;;;;5090074;27;1286;-76
2022/06/01 12:43:51;;;;;;;;;;;;;;;;;;5108140;27;1246;-76
2022/06/01 12:46:39;;;;;;;;;;;;;;;;;;5127252;27;822;-76
2022/06/01 12:49:23;;;;;;;;;;;;;;;;;;5086331;28;1948;-79
2022/06/01 12:51:49;;;;;;;;;;;;;;;;;;5109195;27;1249;-77
2022/06/01 12:54:29;;;;;;;;;;;;;;;;;;5125316;27;766;-77
2022/06/01 12:56:54;;;;;;;;;;;;;;;;;;5122341;27;853;-76
2022/06/01 12:59:19;;;;;;;;;;;;;;;;;;5108528;27;1282;-76
2022/06/01 13:01:49;;;;;;;;;;;;;;;;;;5108622;27;1266;-76
2022/06/01 13:04:22;;;;;;;;;;;;;;;;;;5104541;27;1201;-76
2022/06/01 13:06:47;;;;;;;;;;;;;;;;;;5107777;27;1294;-80
2022/06/01 13:09:17;;;;;;;;;;;;;;;;;;5106268;27;1901;-80
2022/06/01 13:11:43;;;;;;;;;;;;;;;;;;5106147;27;1318;-77
2022/06/01 13:14:09;;;;;;;;;;;;;;;;;;5073483;28;1179;-78
2022/06/01 13:16:42;;;;;;;;;;;;;;;;;;5106322;27;1353;-76
2022/06/01 13:19:15;;;;;;;;;;;;;;;;;;5102782;28;1029;-77
2022/06/01 13:21:43;;;;;;;;;;;;;;;;;;5088721;28;1227;-77
2022/06/01 13:24:09;;;;;;;;;;;;;;;;;;5114696;27;1120;-78
2022/06/01 13:26:39;;;;;;;;;;;;;;;;;;5122567;27;1025;-78
2022/06/01 13:29:21;;;;;;;;;;;;;;;;;;5125843;27;1953;-78
2022/06/01 13:31:49;;;;;;;;;;;;;;;;;;5105917;27;1167;-77
2022/06/01 13:34:29;;;;;;;;;;;;;;;;;;5101790;27;1204;-79
2022/06/01 13:37:03;;;;;;;;;;;;;;;;;;5104840;27;1151;-77
2022/06/01 13:39:30;;;;;;;;;;;;;;;;;;5084504;28;1259;-76
2022/06/01 13:41:59;;;;;;;;;;;;;;;;;;5082777;28;1199;-77
2022/06/01 13:44:43;;;;;;;;;;;;;;;;;;5087758;28;1341;-78
2022/06/01 13:47:08;;;;;;;;;;;;;;;;;;5061833;28;1202;-79
2022/06/01 13:49:34;;;;;;;;;;;;;;;;;;5086736;28;1893;-79
2022/06/01 13:52:03;;;;;;;;;;;;;;;;;;5083343;28;1186;-78
2022/06/01 13:54:33;;;;;;;;;;;;;;;;;;5092114;28;1254;-77
2022/06/01 13:57:01;;;;;;;;;;;;;;;;;;5082622;28;1349;-78
2022/06/01 13:59:34;;;;;;;;;;;;;;;;;;5088125;28;1282;-78
2022/06/01 14:02:09;;;;;;;;;;;;;;;;;;5092729;27;1290;-77
2022/06/01 14:04:36;;;;;;;;;;;;;;;;;;5119099;27;1150;-79
2022/06/01 14:07:06;;;;;;;;;;;;;;;;;;5120416;27;1136;-79
2022/06/01 14:09:33;;;;;;;;;;;;;;;;;;5107476;27;1980;-76
2022/06/01 14:12:00;;;;;;;;;;;;;;;;;;5117703;27;1047;-76
2022/06/01 14:14:38;;;;;;;;;;;;;;;;;;5086600;28;1164;-76
2022/06/01 14:17:07;;;;;;;;;;;;;;;;;;5102008;28;1211;-77
2022/06/01 14:19:33;;;;;;;;;;;;;;;;;;5084644;28;1176;-78
2022/06/01 14:21:59;;;;;;;;;;;;;;;;;;5081344;28;1165;-76
2022/06/01 14:24:24;;;;;;;;;;;;;;;;;;5074484;27;1196;-81
2022/06/01 14:29:34;;;;;;;;;;;;;;;;;;5103805;28;1963;-80
2022/06/01 14:31:59;;;;;;;;;;;;;;;;;;5098979;27;1172;-79
2022/06/01 14:34:26;;;;;;;;;;;;;;;;;;5093656;28;1492;-79
2022/06/01 14:36:52;;;;;;;;;;;;;;;;;;5085287;27;1518;-79
2022/06/01 14:39:19;;;;;;;;;;;;;;;;;;5069204;28;1215;-79
2022/06/01 14:41:45;;;;;;;;;;;;;;;;;;5102141;28;1219;-79
2022/06/01 14:44:16;;;;;;;;;;;;;;;;;;5067043;28;1089;-78
2022/06/01 14:46:41;;;;;;;;;;;;;;;;;;5110729;27;1088;-79
2022/06/01 14:49:07;;;;;;;;;;;;;;;;;;5101491;27;1898;-79
2022/06/01 14:51:34;;;;;;;;;;;;;;;;;;5070941;28;1329;-76
2022/06/01 14:54:00;;;;;;;;;;;;;;;;;;5099050;27;1284;-76
2022/06/01 14:56:26;;;;;;;;;;;;;;;;;;5112970;27;1342;-76
2022/06/01 14:58:51;;;;;;;;;;;;;;;;;;5065866;28;1319;-78
2022/06/01 15:01:20;;;;;;;;;;;;;;;;;;5084189;28;1164;-79
2022/06/01 15:03:46;;;;;;;;;;;;;;;;;;5104247;28;1116;-77
2022/06/01 15:06:13;;;;;;;;;;;;;;;;;;5083667;28;1307;-78
2022/06/01 15:08:39;;;;;;;;;;;;;;;;;;5083837;28;1993;-77
2022/06/01 15:11:04;;;;;;;;;;;;;;;;;;5093457;27;1273;-77
2022/06/01 15:13:30;;;;;;;;;;;;;;;;;;5105651;27;1152;-77
2022/06/01 15:15:56;;;;;;;;;;;;;;;;;;5104290;27;1250;-77
2022/06/01 15:18:22;;;;;;;;;;;;;;;;;;5105109;27;1222;-77
2022/06/01 15:20:47;;;;;;;;;;;;;;;;;;5107700;27;1239;-78
2022/06/01 15:23:12;;;;;;;;;;;;;;;;;;5099658;27;1179;-75
2022/06/01 15:25:38;;;;;;;;;;;;;;;;;;5104597;27;1246;-76
2022/06/01 15:28:04;;;;;;;;;;;;;;;;;;5123875;27;1954;-79
2022/06/01 15:41:25;;;;;;;;;;;;;;;;;;5126162;28;664;-78
2022/06/01 15:43:51;;;;;;;;;;;;;;;;;;5088889;28;1188;-77
2022/06/01 15:46:20;;;;;;;;;;;;;;;;;;5101213;28;1205;-78
2022/06/01 15:48:47;;;;;;;;;;;;;;;;;;5104577;28;1877;-78
2022/06/01 15:51:12;;;;;;;;;;;;;;;;;;5119589;28;889;-78
2022/06/01 15:53:37;;;;;;;;;;;;;;;;;;5122231;28;1179;-78
2022/06/01 15:56:03;;;;;;;;;;;;;;;;;;5103071;28;1251;-78
2022/06/01 15:58:28;;;;;;;;;;;;;;;;;;5088045;27;1062;-77
2022/06/01 16:00:54;;;;;;;;;;;;;;;;;;5106625;27;1480;-77
2022/06/01 16:03:19;;;;;;;;;;;;;;;;;;5086863;28;1218;-78
2022/06/01 16:05:44;;;;;;;;;;;;;;;;;;5085902;28;1479;-78
2022/06/01 16:08:10;;;;;;;;;;;;;;;;;;5088231;28;1973;-77
2022/06/01 16:10:36;;;;;;;;;;;;;;;;;;5089905;28;750;-78
2022/06/01 16:13:02;;;;;;;;;;;;;;;;;;5090413;28;1144;-78
2022/06/01 16:15:28;;;;;;;;;;;;;;;;;;5084849;28;1135;-77
2022/06/01 16:17:53;;;;;;;;;;;;;;;;;;5073340;28;1192;-77
2022/06/01 16:20:23;;;;;;;;;;;;;;;;;;5071179;28;1183;-77
2022/06/01 16:22:49;;;;;;;;;;;;;;;;;;5090230;28;1009;-78
2022/06/01 16:25:14;;;;;;;;;;;;;;;;;;5086645;28;1156;-77
2022/06/01 16:27:40;;;;;;;;;;;;;;;;;;5090139;28;1949;-78
2022/06/01 16:30:07;;;;;;;;;;;;;;;;;;5091009;28;1294;-77
2022/06/01 16:32:36;;;;;;;;;;;;;;;;;;5087717;27;1325;-77
2022/06/01 16:35:05;;;;;;;;;;;;;;;;;;5088685;28;1184;-77
2022/06/01 16:37:31;;;;;;;;;;;;;;;;;;5082402;28;1127;-77
2022/06/01 16:39:57;;;;;;;;;;;;;;;;;;5088208;28;1273;-77
2022/06/01 16:42:23;;;;;;;;;;;;;;;;;;5084167;28;1422;-78
2022/06/01 16:44:49;;;;;;;;;;;;;;;;;;5107907;28;1207;-77
2022/06/01 16:47:15;;;;;;;;;;;;;;;;;;5101902;28;1014;-77
2022/06/01 16:49:40;;;;;;;;;;;;;;;;;;5071507;28;1882;-77
2022/06/01 16:52:06;;;;;;;;;;;;;;;;;;5102011;28;1112;-77
2022/06/01 16:54:32;;;;;;;;;;;;;;;;;;5088590;28;1206;-78
2022/06/01 16:56:58;;;;;;;;;;;;;;;;;;5083992;28;1180;-77
2022/06/01 16:59:25;;;;;;;;;;;;;;;;;;5088586;28;1223;-77
2022/06/01 17:01:50;;;;;;;;;;;;;;;;;;5087895;28;1191;-77
2022/06/01 17:04:15;;;;;;;;;;;;;;;;;;5084973;28;1163;-77
2022/06/01 17:06:42;;;;;;;;;;;;;;;;;;5068793;28;1357;-78
2022/06/01 17:09:07;;;;;;;;;;;;;;;;;;5067513;28;1914;-77
2022/06/01 17:11:33;;;;;;;;;;;;;;;;;;5084860;28;1243;-78
2022/06/01 17:13:58;;;;;;;;;;;;;;;;;;5107841;28;1100;-76
2022/06/01 17:16:24;;;;;;;;;;;;;;;;;;5085980;28;1177;-77
2022/06/01 17:18:49;;;;;;;;;;;;;;;;;;5090041;28;1149;-77
2022/06/01 17:21:16;;;;;;;;;;;;;;;;;;5101529;28;1204;-77
2022/06/01 17:23:42;;;;;;;;;;;;;;;;;;5104131;28;1211;-76
2022/06/01 17:26:07;;;;;;;;;;;;;;;;;;5065337;28;1228;-77
2022/06/01 17:28:33;;;;;;;;;;;;;;;;;;5084759;28;1886;-75
2022/06/01 17:31:04;;;;;;;;;;;;;;;;;;5105899;28;1350;-77
2022/06/01 17:33:30;;;;;;;;;;;;;;;;;;5104513;28;1021;-77
2022/06/01 17:35:56;;;;;;;;;;;;;;;;;;5084213;28;1225;-77
2022/06/01 17:38:22;;;;;;;;;;;;;;;;;;5085035;28;1188;-76
2022/06/01 17:40:48;;;;;;;;;;;;;;;;;;5104541;28;1187;-78
2022/06/01 17:43:14;;;;;;;;;;;;;;;;;;5068004;28;1161;-78
2022/06/01 17:45:40;;;;;;;;;;;;;;;;;;5087133;28;1188;-78
2022/06/01 17:48:29;;;;;;;;;;;;;;;;;;5085338;28;1889;-77
2022/06/01 17:50:55;;;;;;;;;;;;;;;;;;5085453;28;1207;-77
2022/06/01 17:53:21;;;;;;;;;;;;;;;;;;5078627;27;1183;-76
2022/06/01 17:55:46;;;;;;;;;;;;;;;;;;5105817;27;873;-77
2022/06/01 17:58:13;;;;;;;;;;;;;;;;;;5126150;27;806;-77
2022/06/01 18:00:39;;;;;;;;;;;;;;;;;;5105251;27;1040;-76